createdAt,value
2023-05-16T00:00:40.583Z,99.90
2023-05-16T00:03:07.562Z,99.90
2023-05-16T00:05:34.463Z,99.90
2023-05-16T00:08:01.375Z,99.90
2023-05-16T00:10:28.520Z,99.90
2023-05-16T00:12:56.297Z,99.90
2023-05-16T00:15:25.080Z,99.90
2023-05-16T00:17:52.072Z,99.90
2023-05-16T00:20:23.370Z,99.90
2023-05-16T00:22:51.105Z,99.90
2023-05-16T00:25:18.402Z,99.90
2023-05-16T00:27:45.554Z,99.90
2023-05-16T00:30:12.772Z,99.90
2023-05-16T00:32:39.807Z,99.90
2023-05-16T00:35:10.514Z,99.90
2023-05-16T00:37:38.703Z,99.90
2023-05-16T00:40:06.116Z,99.90
2023-05-16T00:42:33.022Z,99.90
2023-05-16T00:45:00.325Z,99.90
2023-05-16T00:47:28.695Z,99.90
2023-05-16T00:49:55.703Z,99.90
2023-05-16T00:52:23.047Z,99.90
2023-05-16T00:54:51.088Z,99.90
2023-05-16T00:57:18.459Z,99.90
2023-05-16T00:59:46.838Z,99.90
2023-05-16T01:02:14.541Z,99.90
2023-05-16T01:04:42.891Z,99.90
2023-05-16T01:07:09.793Z,99.90
2023-05-16T01:09:37.254Z,99.90
2023-05-16T01:12:35.258Z,99.90
2023-05-16T01:15:22.576Z,99.90
2023-05-16T01:18:19.297Z,99.90
2023-05-16T01:20:55.850Z,99.90
2023-05-16T01:24:03.732Z,99.90
2023-05-16T01:26:32.251Z,99.90
2023-05-16T01:29:00.994Z,99.90
2023-05-16T01:31:28.859Z,99.90
2023-05-16T01:33:58.302Z,99.90
2023-05-16T01:36:28.185Z,99.90
2023-05-16T01:39:22.517Z,99.90
2023-05-16T01:42:01.209Z,99.90
2023-05-16T01:44:52.632Z,99.90
2023-05-16T01:47:22.569Z,99.90
2023-05-16T01:50:09.219Z,99.90
2023-05-16T01:52:41.174Z,99.90
2023-05-16T01:55:12.218Z,99.90
2023-05-16T01:57:40.307Z,99.90
2023-05-16T02:00:08.616Z,99.90
2023-05-16T02:02:41.182Z,99.90
2023-05-16T02:05:09.296Z,99.90
2023-05-16T02:07:36.865Z,99.90
2023-05-16T02:10:04.937Z,99.90
2023-05-16T02:12:35.419Z,99.90
2023-05-16T02:15:02.402Z,99.90
2023-05-16T02:17:32.183Z,99.90
2023-05-16T02:20:06.843Z,99.90
2023-05-16T02:22:34.062Z,99.90
2023-05-16T02:25:02.540Z,99.90
2023-05-16T02:27:32.516Z,99.90
2023-05-16T02:29:59.535Z,99.90
2023-05-16T02:32:26.652Z,99.90
2023-05-16T02:34:53.638Z,99.90
2023-05-16T02:37:20.526Z,99.90
2023-05-16T02:39:49.584Z,99.90
2023-05-16T02:42:16.623Z,99.90
2023-05-16T02:44:43.521Z,99.90
2023-05-16T02:47:10.289Z,99.90
2023-05-16T02:49:37.018Z,99.90
2023-05-16T02:52:04.149Z,99.90
2023-05-16T02:54:30.968Z,99.90
2023-05-16T02:56:57.782Z,99.90
2023-05-16T02:59:24.578Z,99.90
2023-05-16T03:01:51.514Z,99.90
2023-05-16T03:04:18.542Z,99.90
2023-05-16T03:06:45.332Z,99.90
2023-05-16T03:09:12.230Z,99.90
2023-05-16T03:11:39.116Z,99.90
2023-05-16T03:14:05.994Z,99.90
2023-05-16T03:16:33.038Z,99.90
2023-05-16T03:18:59.961Z,99.90
2023-05-16T03:21:27.369Z,99.90
2023-05-16T03:23:55.112Z,99.90
2023-05-16T03:26:22.813Z,99.90
2023-05-16T03:28:51.899Z,99.90
2023-05-16T03:31:18.780Z,99.90
2023-05-16T03:33:45.692Z,99.90
2023-05-16T03:36:12.721Z,99.90
2023-05-16T03:38:39.626Z,99.90
2023-05-16T03:41:06.479Z,99.90
2023-05-16T03:43:33.298Z,99.90
2023-05-16T03:46:02.356Z,99.90
2023-05-16T03:48:29.532Z,99.90
2023-05-16T03:50:56.443Z,99.90
2023-05-16T03:53:23.277Z,99.90
2023-05-16T03:55:50.040Z,99.90
2023-05-16T03:58:17.010Z,99.90
2023-05-16T04:00:45.631Z,99.90
2023-05-16T04:03:16.460Z,99.90
2023-05-16T04:05:43.431Z,99.90
2023-05-16T04:08:10.340Z,99.90
2023-05-16T04:10:37.075Z,99.90
2023-05-16T04:13:04.122Z,99.90
2023-05-16T04:15:31.056Z,99.90
2023-05-16T04:17:57.985Z,99.90
2023-05-16T04:20:24.733Z,99.90
2023-05-16T04:22:51.984Z,99.90
2023-05-16T04:25:18.882Z,99.90
2023-05-16T04:27:45.837Z,99.90
2023-05-16T04:30:14.158Z,99.90
2023-05-16T04:32:41.160Z,99.90
2023-05-16T04:35:09.247Z,99.90
2023-05-16T04:37:36.289Z,99.90
2023-05-16T04:40:03.366Z,99.90
2023-05-16T04:42:30.164Z,99.90
2023-05-16T04:44:57.356Z,99.90
2023-05-16T04:47:24.116Z,99.90
2023-05-16T04:49:51.135Z,99.90
2023-05-16T04:52:17.919Z,99.90
2023-05-16T04:54:44.761Z,99.90
2023-05-16T04:57:11.512Z,99.90
2023-05-16T04:59:38.579Z,99.90
2023-05-16T05:02:05.889Z,99.90
2023-05-16T05:04:32.984Z,99.90
2023-05-16T05:06:59.984Z,99.90
2023-05-16T05:09:27.085Z,99.90
2023-05-16T05:11:53.932Z,99.90
2023-05-16T05:14:21.717Z,99.90
2023-05-16T05:16:48.604Z,99.90
2023-05-16T05:19:16.169Z,99.90
2023-05-16T05:21:43.124Z,99.90
2023-05-16T05:24:10.433Z,99.90
2023-05-16T05:26:37.500Z,99.90
2023-05-16T05:29:06.038Z,99.90
2023-05-16T05:31:35.968Z,99.90
2023-05-16T05:34:03.650Z,99.90
2023-05-16T05:36:31.045Z,99.90
2023-05-16T05:38:57.922Z,99.90
2023-05-16T05:41:24.707Z,99.90
2023-05-16T05:43:52.286Z,99.90
2023-05-16T05:46:21.943Z,99.90
2023-05-16T05:48:49.388Z,99.90
2023-05-16T05:51:16.337Z,99.90
2023-05-16T05:53:45.658Z,99.90
2023-05-16T05:56:12.852Z,99.90
2023-05-16T05:58:41.918Z,99.90
2023-05-16T06:01:08.831Z,99.90
2023-05-16T06:03:35.791Z,99.90
2023-05-16T06:06:02.754Z,99.90
2023-05-16T06:08:29.863Z,99.90
2023-05-16T06:10:56.701Z,99.90
2023-05-16T06:13:23.571Z,99.90
2023-05-16T06:15:54.124Z,99.90
2023-05-16T06:18:21.779Z,99.90
2023-05-16T06:20:48.804Z,99.90
2023-05-16T06:23:15.830Z,99.90
2023-05-16T06:25:42.775Z,99.90
2023-05-16T06:28:10.508Z,99.90
2023-05-16T06:30:37.304Z,99.90
2023-05-16T06:33:04.050Z,99.90
2023-05-16T06:35:30.953Z,99.90
2023-05-16T06:37:57.786Z,99.90
2023-05-16T06:40:24.815Z,99.90
2023-05-16T06:42:54.782Z,99.90
2023-05-16T06:45:22.430Z,99.90
2023-05-16T06:47:49.464Z,99.90
2023-05-16T06:50:16.406Z,99.90
2023-05-16T06:52:43.384Z,99.90
2023-05-16T06:55:10.693Z,99.90
2023-05-16T06:57:37.509Z,99.90
2023-05-16T07:00:04.844Z,99.90
2023-05-16T07:02:32.097Z,99.90
2023-05-16T07:04:59.090Z,99.90
2023-05-16T07:07:26.584Z,99.90
2023-05-16T07:09:56.612Z,99.90
2023-05-16T07:12:23.465Z,99.90
2023-05-16T07:14:50.586Z,99.90
2023-05-16T07:17:17.475Z,99.90
2023-05-16T07:19:44.326Z,99.90
2023-05-16T07:22:12.545Z,99.90
2023-05-16T07:24:39.483Z,99.90
2023-05-16T07:27:06.656Z,99.90
2023-05-16T07:29:33.648Z,99.90
2023-05-16T07:32:00.555Z,99.90
2023-05-16T07:34:27.555Z,99.90
2023-05-16T07:36:54.672Z,99.90
2023-05-16T07:39:21.462Z,99.90
2023-05-16T07:41:48.363Z,99.90
2023-05-16T07:44:15.361Z,99.90
2023-05-16T07:46:44.987Z,99.90
2023-05-16T07:49:12.115Z,99.90
2023-05-16T07:51:38.926Z,99.90
2023-05-16T07:54:05.871Z,99.90
2023-05-16T07:56:32.991Z,99.90
2023-05-16T07:59:00.252Z,99.90
2023-05-16T08:01:29.388Z,99.90
2023-05-16T08:03:56.388Z,99.90
2023-05-16T08:06:23.292Z,99.90
2023-05-16T08:08:50.065Z,99.90
2023-05-16T08:11:16.833Z,99.90
2023-05-16T08:13:43.620Z,99.90
2023-05-16T08:16:11.858Z,99.90
2023-05-16T08:18:39.227Z,99.90
2023-05-16T08:21:06.220Z,99.90
2023-05-16T08:23:33.064Z,99.90
2023-05-16T08:26:00.119Z,99.90
2023-05-16T08:28:26.883Z,99.90
2023-05-16T08:30:54.360Z,99.90
2023-05-16T08:33:21.315Z,99.90
2023-05-16T08:35:49.507Z,99.90
2023-05-16T08:38:16.427Z,99.90
2023-05-16T08:40:43.682Z,99.90
2023-05-16T08:43:10.670Z,99.90
2023-05-16T08:45:37.533Z,99.90
2023-05-16T08:48:08.661Z,99.90
2023-05-16T08:50:37.572Z,99.90
2023-05-16T08:53:07.844Z,99.90
2023-05-16T08:55:36.331Z,99.90
2023-05-16T08:58:04.274Z,99.90
2023-05-16T09:00:31.777Z,99.90
2023-05-16T09:02:59.162Z,99.90
2023-05-16T09:05:27.379Z,98.00
2023-05-16T09:07:54.416Z,94.20
2023-05-16T09:10:21.756Z,96.60
2023-05-16T09:12:49.648Z,93.20
2023-05-16T09:15:19.022Z,89.10
2023-05-16T09:17:47.060Z,89.00
2023-05-16T09:20:20.080Z,92.20
2023-05-16T09:22:55.363Z,87.70
2023-05-16T09:27:59.347Z,81.40
2023-05-16T09:30:30.588Z,86.70
2023-05-16T09:32:58.004Z,79.00
2023-05-16T09:35:42.552Z,84.30
2023-05-16T09:38:16.697Z,81.30
2023-05-16T09:40:44.455Z,69.50
2023-05-16T09:43:23.475Z,72.30
2023-05-16T09:45:55.530Z,67.50
2023-05-16T09:48:23.760Z,63.20
2023-05-16T09:50:53.391Z,63.50
2023-05-16T09:53:31.461Z,68.10
2023-05-16T09:56:05.198Z,67.80
2023-05-16T09:58:33.286Z,70.70
2023-05-16T10:01:00.640Z,71.70
2023-05-16T10:03:28.478Z,73.50
2023-05-16T10:05:56.387Z,74.10
2023-05-16T10:08:25.340Z,68.20
2023-05-16T10:10:56.948Z,66.00
2023-05-16T10:13:28.916Z,63.60
2023-05-16T10:15:57.980Z,66.00
2023-05-16T10:18:32.494Z,66.60
2023-05-16T10:21:06.211Z,62.80
2023-05-16T10:23:34.727Z,63.50
2023-05-16T10:26:04.802Z,65.00
2023-05-16T10:28:32.403Z,63.70
2023-05-16T10:31:01.312Z,57.50
2023-05-16T10:33:28.810Z,60.10
2023-05-16T10:35:57.063Z,61.70
2023-05-16T10:38:25.115Z,63.60
2023-05-16T10:40:52.653Z,67.50
2023-05-16T10:43:30.795Z,67.50
2023-05-16T10:46:04.295Z,65.00
2023-05-16T10:48:33.406Z,62.80
2023-05-16T10:51:02.713Z,63.30
2023-05-16T10:53:36.337Z,60.80
2023-05-16T10:56:03.378Z,61.10
2023-05-16T10:58:44.688Z,60.70
2023-05-16T11:01:22.468Z,60.40
2023-05-16T11:03:58.459Z,59.00
2023-05-16T11:06:26.929Z,62.20
2023-05-16T11:09:11.719Z,59.90
2023-05-16T11:11:49.113Z,58.90
2023-05-16T11:14:23.450Z,57.40
2023-05-16T11:17:21.201Z,57.20
2023-05-16T11:19:52.918Z,56.00
2023-05-16T11:22:19.942Z,54.10
2023-05-16T11:24:55.409Z,53.40
2023-05-16T11:27:45.733Z,56.40
2023-05-16T11:30:18.013Z,55.10
2023-05-16T11:32:46.555Z,54.60
2023-05-16T11:35:15.598Z,55.90
2023-05-16T11:37:43.254Z,56.10
2023-05-16T11:40:12.346Z,56.80
2023-05-16T11:42:41.501Z,57.10
2023-05-16T11:45:16.526Z,58.70
2023-05-16T11:47:47.961Z,61.00
2023-05-16T11:50:20.738Z,62.00
2023-05-16T11:52:50.552Z,62.10
2023-05-16T11:55:28.385Z,63.00
2023-05-16T11:58:06.565Z,64.40
2023-05-16T12:00:33.629Z,63.10
2023-05-16T12:03:05.614Z,62.70
2023-05-16T12:05:34.805Z,64.10
2023-05-16T12:08:02.659Z,65.90
2023-05-16T12:10:34.035Z,63.20
2023-05-16T12:13:01.401Z,64.40
2023-05-16T12:15:28.579Z,64.90
2023-05-16T12:17:56.935Z,68.00
2023-05-16T12:20:26.194Z,68.20
2023-05-16T12:22:53.428Z,69.90
2023-05-16T12:25:29.357Z,67.00
2023-05-16T12:28:00.008Z,64.40
2023-05-16T12:30:28.442Z,65.50
2023-05-16T12:33:15.792Z,65.40
2023-05-16T12:35:45.141Z,66.50
2023-05-16T12:38:14.166Z,67.60
2023-05-16T12:40:42.733Z,69.10
2023-05-16T12:43:16.816Z,69.40
2023-05-16T12:45:58.804Z,71.70
2023-05-16T12:48:37.287Z,71.00
2023-05-16T12:51:19.451Z,67.50
2023-05-16T12:54:01.402Z,65.10
2023-05-16T12:56:45.042Z,67.80
2023-05-16T12:59:15.131Z,68.50
2023-05-16T13:01:42.505Z,68.00
2023-05-16T13:04:09.793Z,69.80
2023-05-16T13:06:55.506Z,71.30
2023-05-16T13:09:24.440Z,72.50
2023-05-16T13:11:54.265Z,76.20
2023-05-16T13:14:21.101Z,73.70
2023-05-16T13:16:48.039Z,73.70
2023-05-16T13:19:14.973Z,72.70
2023-05-16T13:21:41.936Z,72.70
2023-05-16T13:24:08.993Z,71.70
2023-05-16T13:26:35.920Z,71.50
2023-05-16T13:29:02.818Z,72.30
2023-05-16T13:31:32.311Z,73.00
2023-05-16T13:33:59.316Z,71.20
2023-05-16T13:36:26.054Z,67.20
2023-05-16T13:38:52.968Z,72.10
2023-05-16T13:41:19.957Z,72.20
2023-05-16T13:43:46.771Z,73.40
2023-05-16T13:46:13.960Z,71.70
2023-05-16T13:48:42.511Z,72.60
2023-05-16T13:51:10.883Z,74.10
2023-05-16T13:53:39.523Z,73.80
2023-05-16T13:56:07.569Z,73.90
2023-05-16T13:58:43.008Z,74.90
2023-05-16T14:01:19.647Z,72.80
2023-05-16T14:03:46.966Z,70.60
2023-05-16T14:06:13.902Z,69.50
2023-05-16T14:08:40.843Z,70.70
2023-05-16T14:11:07.786Z,71.90
2023-05-16T14:13:34.637Z,71.40
2023-05-16T14:16:02.697Z,71.90
2023-05-16T14:18:29.738Z,74.50
2023-05-16T14:20:56.912Z,73.70
2023-05-16T14:23:24.020Z,73.00
2023-05-16T14:25:51.293Z,71.80
2023-05-16T14:28:18.478Z,70.70
2023-05-16T14:30:47.344Z,70.90
2023-05-16T14:33:15.045Z,69.70
2023-05-16T14:35:42.711Z,70.40
2023-05-16T14:38:10.133Z,73.30
2023-05-16T14:40:37.266Z,72.30
2023-05-16T14:43:04.597Z,72.40
2023-05-16T14:45:31.993Z,73.50
2023-05-16T14:47:59.609Z,71.30
2023-05-16T14:50:29.534Z,71.20
2023-05-16T14:52:56.618Z,70.10
2023-05-16T14:55:24.015Z,71.40
2023-05-16T14:57:57.090Z,71.70
2023-05-16T15:00:26.968Z,68.80
2023-05-16T15:02:54.037Z,69.60
2023-05-16T15:05:22.259Z,69.00
2023-05-16T15:07:50.130Z,69.40
2023-05-16T15:10:20.271Z,70.90
2023-05-16T15:12:48.347Z,70.20
2023-05-16T15:15:16.799Z,70.70
2023-05-16T15:17:50.118Z,70.90
2023-05-16T15:20:17.385Z,70.70
2023-05-16T15:22:44.613Z,72.40
2023-05-16T15:25:13.008Z,71.80
2023-05-16T15:27:39.772Z,72.70
2023-05-16T15:30:08.420Z,71.90
2023-05-16T15:32:35.521Z,72.90
2023-05-16T15:35:02.530Z,72.10
2023-05-16T15:37:29.430Z,70.00
2023-05-16T15:39:56.426Z,67.50
2023-05-16T15:42:23.462Z,67.40
2023-05-16T15:44:50.298Z,68.90
2023-05-16T15:47:17.388Z,70.20
2023-05-16T15:49:44.364Z,68.50
2023-05-16T15:52:11.336Z,66.10
2023-05-16T15:54:38.220Z,68.80
2023-05-16T15:57:05.368Z,68.50
2023-05-16T15:59:32.333Z,67.00
2023-05-16T16:01:59.293Z,66.40
2023-05-16T16:04:26.093Z,69.40
2023-05-16T16:06:52.890Z,69.90
2023-05-16T16:09:19.647Z,70.10
2023-05-16T16:11:46.505Z,71.50
2023-05-16T16:14:13.626Z,73.10
2023-05-16T16:16:41.029Z,74.10
2023-05-16T16:19:11.785Z,73.70
2023-05-16T16:21:38.825Z,74.70
2023-05-16T16:24:06.000Z,74.70
2023-05-16T16:26:32.932Z,73.30
2023-05-16T16:29:00.023Z,75.00
2023-05-16T16:31:26.949Z,76.20
2023-05-16T16:33:54.769Z,77.50
2023-05-16T16:36:21.736Z,78.80
2023-05-16T16:38:48.933Z,82.20
2023-05-16T16:41:16.551Z,87.00
2023-05-16T16:43:43.526Z,92.80
2023-05-16T16:46:10.707Z,96.70
2023-05-16T16:48:37.767Z,99.90
2023-05-16T16:51:04.752Z,99.90
2023-05-16T16:53:33.686Z,99.90
2023-05-16T16:56:00.463Z,99.90
2023-05-16T16:58:27.344Z,99.90
2023-05-16T17:00:54.385Z,99.90
2023-05-16T17:03:21.856Z,99.90
2023-05-16T17:05:48.713Z,99.90
2023-05-16T17:08:15.661Z,99.90
2023-05-16T17:10:43.139Z,99.90
2023-05-16T17:13:12.219Z,99.90
2023-05-16T17:15:39.264Z,99.90
2023-05-16T17:18:09.300Z,99.90
2023-05-16T17:20:36.601Z,99.90
2023-05-16T17:23:04.213Z,99.90
2023-05-16T17:25:31.236Z,99.90
2023-05-16T17:27:58.275Z,99.90
2023-05-16T17:30:26.258Z,99.90
2023-05-16T17:32:54.157Z,99.90
2023-05-16T17:35:21.200Z,99.90
2023-05-16T17:37:48.093Z,99.90
2023-05-16T17:40:17.210Z,99.90
2023-05-16T17:42:45.257Z,99.90
2023-05-16T17:45:13.737Z,99.90
2023-05-16T17:47:43.191Z,99.90
2023-05-16T17:50:10.596Z,99.90
2023-05-16T17:52:40.615Z,99.90
2023-05-16T17:55:09.296Z,99.90
2023-05-16T17:57:36.187Z,99.90
2023-05-16T18:00:05.750Z,99.90
2023-05-16T18:02:32.751Z,99.90
2023-05-16T18:05:02.562Z,99.90
2023-05-16T18:07:29.322Z,99.90
2023-05-16T18:09:56.026Z,99.90
2023-05-16T18:12:23.018Z,99.90
2023-05-16T18:14:50.468Z,99.90
2023-05-16T18:17:17.373Z,99.90
2023-05-16T18:19:44.351Z,99.90
2023-05-16T18:22:12.431Z,99.90
2023-05-16T18:24:39.954Z,99.90
2023-05-16T18:27:07.138Z,99.90
2023-05-16T18:29:36.183Z,99.90
2023-05-16T18:32:04.183Z,99.90
2023-05-16T18:34:31.513Z,99.90
2023-05-16T18:36:58.737Z,99.90
2023-05-16T18:39:25.920Z,99.90
2023-05-16T18:41:55.971Z,99.90
2023-05-16T18:44:25.209Z,99.90
2023-05-16T18:46:52.407Z,99.90
2023-05-16T18:49:19.309Z,99.90
2023-05-16T18:51:46.212Z,99.90
2023-05-16T18:54:13.059Z,99.90
2023-05-16T18:56:39.858Z,99.90
2023-05-16T18:59:06.957Z,99.90
2023-05-16T19:01:34.072Z,99.90
2023-05-16T19:04:01.298Z,99.90
2023-05-16T19:06:28.367Z,99.90
2023-05-16T19:08:55.365Z,99.90
2023-05-16T19:11:22.907Z,99.90
2023-05-16T19:13:51.180Z,99.90
2023-05-16T19:16:24.521Z,99.90
2023-05-16T19:18:53.897Z,99.90
2023-05-16T19:21:21.231Z,99.90
2023-05-16T19:23:52.422Z,99.90
2023-05-16T19:26:28.976Z,99.90
2023-05-16T19:28:56.926Z,99.90
2023-05-16T19:31:24.028Z,99.90
2023-05-16T19:33:51.906Z,99.90
2023-05-16T19:36:21.954Z,99.90
2023-05-16T19:38:49.227Z,99.90
2023-05-16T19:41:16.533Z,99.90
2023-05-16T19:43:43.589Z,99.90
2023-05-16T19:46:10.653Z,99.90
2023-05-16T19:48:38.105Z,99.90
2023-05-16T19:51:11.859Z,99.90
2023-05-16T19:53:50.688Z,99.90
2023-05-16T19:56:19.938Z,99.90
2023-05-16T19:58:50.859Z,99.90
2023-05-16T20:01:17.963Z,99.90
2023-05-16T20:03:45.262Z,99.90
2023-05-16T20:06:12.304Z,99.90
2023-05-16T20:08:39.825Z,99.90
2023-05-16T20:11:06.784Z,99.90
2023-05-16T20:13:33.943Z,99.90
2023-05-16T20:16:01.095Z,99.90
2023-05-16T20:18:28.209Z,99.90
2023-05-16T20:20:56.837Z,99.90
2023-05-16T20:23:26.440Z,99.90
2023-05-16T20:25:53.198Z,99.90
2023-05-16T20:28:19.941Z,99.90
2023-05-16T20:30:46.954Z,99.90
2023-05-16T20:33:16.943Z,99.90
2023-05-16T20:35:43.721Z,99.90
2023-05-16T20:38:10.684Z,99.90
2023-05-16T20:40:37.960Z,99.90
2023-05-16T20:43:04.777Z,99.90
2023-05-16T20:45:31.757Z,99.90
2023-05-16T20:47:58.606Z,99.90
2023-05-16T20:50:27.438Z,99.90
2023-05-16T20:52:54.337Z,99.90
2023-05-16T20:55:21.474Z,99.90
2023-05-16T20:57:48.551Z,99.90
2023-05-16T21:00:15.923Z,99.90
2023-05-16T21:02:42.811Z,99.90
2023-05-16T21:05:23.890Z,99.90
2023-05-16T21:07:52.078Z,99.90
2023-05-16T21:10:18.961Z,99.90
2023-05-16T21:12:45.974Z,99.90
2023-05-16T21:15:12.882Z,99.90
2023-05-16T21:17:40.879Z,99.90
2023-05-16T21:20:08.626Z,99.90
2023-05-16T21:22:35.752Z,99.90
2023-05-16T21:25:02.640Z,99.90
2023-05-16T21:27:29.587Z,99.90
2023-05-16T21:29:56.409Z,99.90
2023-05-16T21:32:23.317Z,99.90
2023-05-16T21:34:50.180Z,99.90
2023-05-16T21:37:17.270Z,99.90
2023-05-16T21:39:44.103Z,99.90
2023-05-16T21:42:11.004Z,99.90
2023-05-16T21:44:37.810Z,99.90
2023-05-16T21:47:06.270Z,99.90
2023-05-16T21:49:34.678Z,99.90
2023-05-16T21:52:01.664Z,99.90
2023-05-16T21:54:28.691Z,99.90
2023-05-16T21:56:55.590Z,99.90
2023-05-16T21:59:22.413Z,99.90
2023-05-16T22:01:49.246Z,99.90
2023-05-16T22:04:16.482Z,99.90
2023-05-16T22:06:43.519Z,99.90
2023-05-16T22:09:11.678Z,99.90
2023-05-16T22:11:38.569Z,99.90
2023-05-16T22:14:05.818Z,99.90
2023-05-16T22:16:32.779Z,99.90
2023-05-16T22:18:59.937Z,99.90
2023-05-16T22:21:29.605Z,99.90
2023-05-16T22:23:59.398Z,99.90
2023-05-16T22:26:26.213Z,99.90
2023-05-16T22:28:53.111Z,99.90
2023-05-16T22:31:19.962Z,99.90
2023-05-16T22:33:47.119Z,99.90
2023-05-16T22:36:13.968Z,99.90
2023-05-16T22:38:40.952Z,99.90
2023-05-16T22:41:07.876Z,99.90
2023-05-16T22:43:34.904Z,99.90
2023-05-16T22:46:03.275Z,99.90
2023-05-16T22:48:30.556Z,99.90
2023-05-16T22:50:59.052Z,99.90
2023-05-16T22:53:26.036Z,99.90
2023-05-16T22:55:52.933Z,99.90
2023-05-16T22:58:20.140Z,99.90
2023-05-16T23:00:47.016Z,99.90
2023-05-16T23:03:14.015Z,99.90
2023-05-16T23:05:41.252Z,99.90
2023-05-16T23:08:08.372Z,99.90
2023-05-16T23:10:36.616Z,99.90
2023-05-16T23:13:03.506Z,99.90
2023-05-16T23:15:30.758Z,99.90
2023-05-16T23:17:57.930Z,99.90
2023-05-16T23:20:24.872Z,99.90
2023-05-16T23:22:51.804Z,99.90
2023-05-16T23:25:20.667Z,99.90
2023-05-16T23:27:47.519Z,99.90
2023-05-16T23:30:14.997Z,99.90
2023-05-16T23:32:42.053Z,99.90
2023-05-16T23:35:09.148Z,99.90
2023-05-16T23:37:36.108Z,99.90
2023-05-16T23:40:03.403Z,99.90
2023-05-16T23:42:30.328Z,99.90
2023-05-16T23:44:57.142Z,99.90
2023-05-16T23:47:24.057Z,99.90
2023-05-16T23:49:50.881Z,99.90
2023-05-16T23:52:17.833Z,99.90
2023-05-16T23:54:57.706Z,99.90
2023-05-16T23:57:24.520Z,99.90
2023-05-16T23:59:52.758Z,99.90
